createdAt,value
2022-08-03T00:00:23.998Z,64.64
2022-08-03T00:02:50.728Z,64.78
2022-08-03T00:05:17.231Z,65.06
2022-08-03T00:07:43.563Z,65.08
2022-08-03T00:10:12.602Z,65.24
2022-08-03T00:12:39.019Z,65.52
2022-08-03T00:15:09.524Z,65.31
2022-08-03T00:17:52.351Z,65.71
2022-08-03T00:20:21.174Z,65.14
2022-08-03T00:22:47.549Z,65.07
2022-08-03T00:25:14.039Z,64.70
2022-08-03T00:27:40.412Z,64.09
2022-08-03T00:30:08.651Z,64.44
2022-08-03T00:32:35.082Z,64.90
2022-08-03T00:35:08.355Z,65.08
2022-08-03T00:37:41.537Z,64.62
2022-08-03T00:40:10.721Z,64.16
2022-08-03T00:42:50.508Z,64.14
2022-08-03T00:45:22.984Z,64.05
2022-08-03T00:47:49.732Z,64.03
2022-08-03T00:50:17.905Z,64.95
2022-08-03T00:52:45.050Z,65.18
2022-08-03T00:55:12.208Z,65.69
2022-08-03T00:57:39.051Z,66.01
2022-08-03T01:00:08.154Z,66.03
2022-08-03T01:02:34.862Z,66.16
2022-08-03T01:05:01.543Z,66.29
2022-08-03T01:07:56.972Z,65.89
2022-08-03T01:10:37.189Z,66.82
2022-08-03T01:14:01.333Z,66.69
2022-08-03T01:16:35.776Z,66.87
2022-08-03T01:19:18.524Z,67.00
2022-08-03T01:22:16.842Z,67.12
2022-08-03T01:25:01.365Z,66.88
2022-08-03T01:28:08.845Z,66.78
2022-08-03T01:30:39.597Z,66.89
2022-08-03T01:33:12.347Z,67.35
2022-08-03T01:35:47.312Z,67.02
2022-08-03T01:38:18.148Z,67.06
2022-08-03T01:40:46.426Z,66.95
2022-08-03T01:44:28.275Z,67.44
2022-08-03T01:46:04.274Z,67.87
2022-08-03T01:48:32.365Z,67.50
2022-08-03T01:51:00.019Z,67.39
2022-08-03T01:53:27.664Z,67.56
2022-08-03T01:55:57.389Z,67.50
2022-08-03T01:58:25.564Z,67.60
2022-08-03T02:00:53.243Z,68.28
2022-08-03T02:03:22.089Z,68.05
2022-08-03T02:06:01.250Z,67.88
2022-08-03T02:08:38.966Z,68.14
2022-08-03T02:11:06.580Z,68.01
2022-08-03T02:13:34.686Z,68.18
2022-08-03T02:16:05.660Z,68.44
2022-08-03T02:18:33.389Z,68.27
2022-08-03T02:21:01.895Z,68.40
2022-08-03T02:23:38.202Z,68.26
2022-08-03T02:26:06.929Z,68.46
2022-08-03T02:28:37.454Z,68.72
2022-08-03T02:31:07.268Z,68.98
2022-08-03T02:33:42.948Z,68.91
2022-08-03T02:36:11.769Z,69.11
2022-08-03T02:38:42.667Z,69.89
2022-08-03T02:41:15.539Z,69.13
2022-08-03T02:44:05.327Z,69.11
2022-08-03T02:46:36.561Z,68.99
2022-08-03T02:49:34.945Z,69.68
2022-08-03T02:51:53.288Z,69.43
2022-08-03T02:54:22.161Z,69.93
2022-08-03T02:56:49.784Z,69.49
2022-08-03T02:59:18.666Z,69.30
2022-08-03T03:01:45.436Z,69.62
2022-08-03T03:04:13.138Z,69.63
2022-08-03T03:06:41.176Z,69.89
2022-08-03T03:09:10.148Z,69.90
2022-08-03T03:11:39.143Z,70.17
2022-08-03T03:14:07.306Z,70.19
2022-08-03T03:16:36.322Z,70.33
2022-08-03T03:19:03.339Z,70.41
2022-08-03T03:21:31.073Z,70.71
2022-08-03T03:23:58.710Z,70.04
2022-08-03T03:26:26.088Z,70.19
2022-08-03T03:28:52.861Z,70.29
2022-08-03T03:31:19.326Z,70.21
2022-08-03T03:33:46.438Z,70.27
2022-08-03T03:36:13.181Z,70.38
2022-08-03T03:38:39.564Z,70.66
2022-08-03T03:41:06.287Z,70.39
2022-08-03T03:43:33.008Z,70.49
2022-08-03T03:46:00.681Z,70.97
2022-08-03T03:48:27.330Z,70.45
2022-08-03T03:50:54.009Z,70.68
2022-08-03T03:53:20.956Z,70.00
2022-08-03T03:56:02.052Z,69.52
2022-08-03T03:58:30.020Z,69.61
2022-08-03T04:00:56.615Z,69.56
2022-08-03T04:03:23.629Z,70.13
2022-08-03T04:05:50.723Z,70.31
2022-08-03T04:08:18.381Z,70.52
2022-08-03T04:10:54.400Z,70.52
2022-08-03T04:13:22.242Z,70.54
2022-08-03T04:15:49.962Z,70.62
2022-08-03T04:18:18.589Z,70.78
2022-08-03T04:20:48.675Z,70.82
2022-08-03T04:23:19.647Z,71.32
2022-08-03T04:25:48.988Z,71.01
2022-08-03T04:28:31.406Z,71.14
2022-08-03T04:30:59.586Z,70.91
2022-08-03T04:33:29.448Z,70.84
2022-08-03T04:36:01.907Z,71.18
2022-08-03T04:38:32.946Z,71.18
2022-08-03T04:41:00.791Z,70.79
2022-08-03T04:43:28.191Z,70.50
2022-08-03T04:45:56.704Z,70.29
2022-08-03T04:48:23.310Z,70.41
2022-08-03T04:50:49.845Z,70.31
2022-08-03T04:53:16.925Z,70.32
2022-08-03T04:55:43.942Z,70.51
2022-08-03T04:58:10.509Z,70.40
2022-08-03T05:00:36.967Z,70.71
2022-08-03T05:03:03.386Z,70.46
2022-08-03T05:05:50.101Z,69.90
2022-08-03T05:08:17.106Z,69.68
2022-08-03T05:10:47.558Z,69.27
2022-08-03T05:13:14.237Z,69.14
2022-08-03T05:15:43.289Z,68.52
2022-08-03T05:18:13.875Z,68.68
2022-08-03T05:20:40.906Z,68.83
2022-08-03T05:23:07.283Z,68.33
2022-08-03T05:25:34.020Z,68.45
2022-08-03T05:28:00.554Z,68.79
2022-08-03T05:30:33.484Z,68.99
2022-08-03T05:33:00.990Z,68.82
2022-08-03T05:35:57.860Z,68.13
2022-08-03T05:38:14.089Z,68.28
2022-08-03T05:40:56.829Z,68.16
2022-08-03T05:43:24.218Z,67.67
2022-08-03T05:46:11.487Z,66.95
2022-08-03T05:48:37.219Z,66.83
2022-08-03T05:51:03.796Z,66.75
2022-08-03T05:53:33.888Z,66.70
2022-08-03T05:56:13.055Z,67.14
2022-08-03T05:58:40.061Z,66.50
2022-08-03T06:01:06.568Z,66.73
2022-08-03T06:03:32.937Z,66.63
2022-08-03T06:06:00.195Z,66.63
2022-08-03T06:08:27.472Z,66.23
2022-08-03T06:10:54.110Z,66.46
2022-08-03T06:13:20.543Z,66.73
2022-08-03T06:15:46.886Z,65.96
2022-08-03T06:18:13.221Z,65.00
2022-08-03T06:20:39.936Z,65.68
2022-08-03T06:23:06.587Z,65.57
2022-08-03T06:25:33.874Z,65.56
2022-08-03T06:28:00.378Z,65.76
2022-08-03T06:30:26.884Z,65.12
2022-08-03T06:32:53.449Z,64.91
2022-08-03T06:35:20.271Z,64.72
2022-08-03T06:37:49.830Z,64.68
2022-08-03T06:40:21.915Z,64.69
2022-08-03T06:42:51.174Z,63.82
2022-08-03T06:45:18.069Z,63.68
2022-08-03T06:47:44.717Z,63.55
2022-08-03T06:50:16.345Z,62.43
2022-08-03T06:52:44.643Z,61.62
2022-08-03T06:55:10.992Z,60.41
2022-08-03T06:57:37.394Z,60.22
2022-08-03T07:00:07.392Z,60.41
2022-08-03T07:02:38.583Z,59.44
2022-08-03T07:05:05.957Z,58.18
2022-08-03T07:07:32.590Z,58.46
2022-08-03T07:09:59.248Z,58.62
2022-08-03T07:12:27.437Z,58.25
2022-08-03T07:14:58.164Z,58.74
2022-08-03T07:17:26.836Z,59.00
2022-08-03T07:19:53.268Z,58.86
2022-08-03T07:22:19.837Z,58.82
2022-08-03T07:24:46.299Z,58.26
2022-08-03T07:27:13.014Z,58.40
2022-08-03T07:29:39.426Z,58.79
2022-08-03T07:32:06.070Z,58.64
2022-08-03T07:34:32.894Z,58.18
2022-08-03T07:36:59.342Z,57.97
2022-08-03T07:39:25.759Z,58.24
2022-08-03T07:41:52.770Z,57.47
2022-08-03T07:44:19.668Z,57.69
2022-08-03T07:46:46.699Z,57.16
2022-08-03T07:49:13.470Z,56.70
2022-08-03T07:51:39.973Z,56.81
2022-08-03T07:54:06.407Z,56.79
2022-08-03T07:56:34.092Z,57.40
2022-08-03T07:59:00.503Z,55.88
2022-08-03T08:01:27.003Z,56.12
2022-08-03T08:03:53.825Z,55.76
2022-08-03T08:06:21.562Z,55.31
2022-08-03T08:08:48.316Z,54.14
2022-08-03T08:11:15.043Z,54.06
2022-08-03T08:13:41.375Z,52.54
2022-08-03T08:16:08.255Z,51.78
2022-08-03T08:18:34.688Z,50.29
2022-08-03T08:21:01.326Z,48.98
2022-08-03T08:23:42.463Z,49.25
2022-08-03T08:26:10.275Z,47.09
2022-08-03T08:28:36.624Z,46.70
2022-08-03T08:31:03.346Z,45.95
2022-08-03T08:33:47.958Z,44.59
2022-08-03T08:36:16.837Z,43.26
2022-08-03T08:38:43.950Z,38.53
2022-08-03T08:41:14.845Z,34.85
2022-08-03T08:43:42.170Z,34.30
2022-08-03T08:46:12.501Z,33.34
2022-08-03T08:48:41.989Z,33.70
2022-08-03T08:51:09.326Z,31.98
2022-08-03T08:53:38.024Z,30.07
2022-08-03T08:56:05.607Z,31.52
2022-08-03T08:58:37.843Z,31.33
2022-08-03T09:01:05.766Z,27.00
2022-08-03T09:03:34.106Z,28.72
2022-08-03T09:06:01.438Z,28.25
2022-08-03T09:08:29.519Z,27.73
2022-08-03T09:10:56.198Z,26.82
2022-08-03T09:13:22.876Z,26.61
2022-08-03T09:15:57.259Z,27.18
2022-08-03T09:18:32.255Z,28.47
2022-08-03T09:21:35.270Z,24.50
2022-08-03T09:24:05.878Z,25.18
2022-08-03T09:26:37.188Z,26.27
2022-08-03T09:29:09.654Z,25.37
2022-08-03T09:31:43.555Z,24.56
2022-08-03T09:34:12.808Z,24.97
2022-08-03T09:36:46.233Z,26.02
2022-08-03T09:39:15.280Z,25.43
2022-08-03T09:41:44.187Z,24.99
2022-08-03T09:44:24.442Z,24.88
2022-08-03T09:46:56.046Z,25.45
2022-08-03T09:49:22.965Z,23.94
2022-08-03T09:52:32.115Z,24.31
2022-08-03T09:54:36.290Z,25.21
2022-08-03T09:57:03.557Z,23.67
2022-08-03T09:59:32.330Z,24.65
2022-08-03T10:02:00.614Z,24.58
2022-08-03T10:04:27.669Z,24.89
2022-08-03T10:07:08.672Z,24.98
2022-08-03T10:09:36.371Z,23.92
2022-08-03T10:12:08.561Z,24.47
2022-08-03T10:14:37.649Z,24.30
2022-08-03T10:17:05.240Z,24.33
2022-08-03T10:19:32.875Z,23.56
2022-08-03T10:22:04.475Z,24.16
2022-08-03T10:24:34.759Z,23.52
2022-08-03T10:27:06.589Z,23.77
2022-08-03T10:29:39.269Z,23.54
2022-08-03T10:32:43.625Z,23.95
2022-08-03T10:35:20.096Z,23.62
2022-08-03T10:38:01.672Z,23.55
2022-08-03T10:40:49.335Z,24.22
2022-08-03T10:43:24.226Z,26.33
2022-08-03T10:45:51.893Z,25.50
2022-08-03T10:48:19.588Z,26.06
2022-08-03T10:50:48.553Z,26.52
2022-08-03T10:53:18.602Z,26.23
2022-08-03T10:55:46.360Z,26.88
2022-08-03T10:58:12.905Z,26.43
2022-08-03T11:00:56.907Z,27.13
2022-08-03T11:03:23.346Z,27.32
2022-08-03T11:05:49.696Z,27.85
2022-08-03T11:08:42.941Z,28.83
2022-08-03T11:11:18.383Z,27.90
2022-08-03T11:14:09.742Z,28.38
2022-08-03T11:16:45.117Z,28.45
2022-08-03T11:19:13.623Z,28.01
2022-08-03T11:21:49.058Z,28.23
2022-08-03T11:24:34.461Z,28.84
2022-08-03T11:27:20.084Z,28.03
2022-08-03T11:29:55.725Z,29.59
2022-08-03T11:32:37.572Z,29.49
2022-08-03T11:35:15.042Z,28.28
2022-08-03T11:38:05.338Z,27.93
2022-08-03T11:40:35.265Z,27.92
2022-08-03T11:43:03.192Z,28.10
2022-08-03T11:45:30.184Z,30.02
2022-08-03T11:47:56.924Z,28.73
2022-08-03T11:50:24.119Z,28.14
2022-08-03T11:52:50.856Z,28.17
2022-08-03T11:55:19.865Z,27.58
2022-08-03T11:59:18.753Z,28.41
2022-08-03T12:00:33.770Z,28.55
2022-08-03T12:03:07.673Z,28.76
2022-08-03T12:05:42.336Z,27.89
2022-08-03T12:08:38.889Z,25.89
2022-08-03T12:11:07.936Z,26.26
2022-08-03T12:14:28.878Z,27.47
2022-08-03T12:16:32.039Z,26.52
2022-08-03T12:19:04.401Z,27.51
2022-08-03T12:21:31.495Z,28.44
2022-08-03T12:24:00.501Z,28.27
2022-08-03T12:26:28.721Z,28.80
2022-08-03T12:28:55.257Z,28.33
2022-08-03T12:31:21.676Z,29.83
2022-08-03T12:34:02.412Z,26.52
2022-08-03T12:36:32.114Z,25.90
2022-08-03T12:39:04.834Z,26.33
2022-08-03T12:41:34.425Z,26.96
2022-08-03T12:44:04.571Z,25.73
2022-08-03T12:46:34.390Z,26.70
2022-08-03T12:49:03.545Z,26.28
2022-08-03T12:51:33.259Z,26.88
2022-08-03T12:54:00.087Z,26.82
2022-08-03T12:56:27.015Z,23.92
2022-08-03T12:58:53.396Z,25.17
2022-08-03T13:01:20.768Z,25.95
2022-08-03T13:03:52.877Z,25.54
2022-08-03T13:06:25.945Z,25.21
2022-08-03T13:09:04.375Z,26.93
2022-08-03T13:11:58.209Z,26.90
2022-08-03T13:14:20.091Z,27.22
2022-08-03T13:16:48.304Z,27.30
2022-08-03T13:19:15.845Z,27.86
2022-08-03T13:22:01.889Z,26.96
2022-08-03T13:24:30.571Z,27.71
2022-08-03T13:26:58.329Z,26.91
2022-08-03T13:29:24.664Z,28.12
2022-08-03T13:31:52.697Z,28.63
2022-08-03T13:34:23.216Z,27.52
2022-08-03T13:37:08.371Z,27.50
2022-08-03T13:39:57.562Z,25.51
2022-08-03T13:42:22.572Z,25.95
2022-08-03T13:44:49.009Z,25.21
2022-08-03T13:47:15.541Z,25.23
2022-08-03T13:49:41.977Z,24.40
2022-08-03T13:52:08.307Z,25.16
2022-08-03T13:54:34.648Z,25.86
2022-08-03T13:58:02.821Z,25.67
2022-08-03T13:59:47.397Z,25.82
2022-08-03T14:02:13.889Z,25.46
2022-08-03T14:04:40.305Z,26.05
2022-08-03T14:07:06.990Z,26.03
2022-08-03T14:09:33.408Z,26.13
2022-08-03T14:12:07.741Z,27.14
2022-08-03T14:14:35.253Z,26.97
2022-08-03T14:17:01.733Z,27.68
2022-08-03T14:19:28.836Z,26.18
2022-08-03T14:22:03.724Z,26.89
2022-08-03T14:24:33.448Z,26.16
2022-08-03T14:27:05.909Z,26.39
2022-08-03T14:29:35.541Z,26.91
2022-08-03T14:32:09.519Z,27.26
2022-08-03T14:34:37.078Z,27.93
2022-08-03T14:37:03.511Z,26.53
2022-08-03T14:39:58.201Z,27.33
2022-08-03T14:42:16.757Z,26.82
2022-08-03T14:44:43.100Z,26.31
2022-08-03T14:47:09.455Z,26.13
2022-08-03T14:50:30.373Z,26.77
2022-08-03T14:52:22.221Z,26.27
2022-08-03T14:54:48.635Z,27.25
2022-08-03T14:57:15.186Z,27.10
2022-08-03T14:59:56.299Z,26.96
2022-08-03T15:02:24.649Z,27.45
2022-08-03T15:04:51.676Z,26.36
2022-08-03T15:07:18.389Z,27.02
2022-08-03T15:09:45.023Z,27.84
2022-08-03T15:12:12.066Z,26.43
2022-08-03T15:14:38.682Z,26.81
2022-08-03T15:17:05.448Z,26.55
2022-08-03T15:20:02.236Z,26.54
2022-08-03T15:22:19.079Z,27.04
2022-08-03T15:24:47.272Z,27.26
2022-08-03T15:27:13.597Z,25.60
2022-08-03T15:30:04.968Z,25.03
2022-08-03T15:32:27.151Z,24.54
2022-08-03T15:34:53.496Z,25.13
2022-08-03T15:37:20.034Z,25.85
2022-08-03T15:39:58.360Z,25.52
2022-08-03T15:42:27.136Z,25.63
2022-08-03T15:44:54.702Z,26.30
2022-08-03T15:47:21.667Z,27.33
2022-08-03T15:49:48.656Z,27.20
2022-08-03T15:52:15.058Z,27.22
2022-08-03T15:54:41.461Z,27.25
2022-08-03T15:57:08.099Z,27.43
2022-08-03T15:59:34.537Z,27.15
2022-08-03T16:02:01.332Z,27.39
2022-08-03T16:04:27.977Z,27.82
2022-08-03T16:06:54.443Z,28.13
2022-08-03T16:09:24.121Z,28.04
2022-08-03T16:12:14.569Z,27.38
2022-08-03T16:14:52.275Z,27.09
2022-08-03T16:17:20.775Z,26.84
2022-08-03T16:19:47.632Z,27.55
2022-08-03T16:22:14.555Z,26.67
2022-08-03T16:24:41.737Z,26.56
2022-08-03T16:27:17.229Z,27.11
2022-08-03T16:29:52.861Z,27.21
2022-08-03T16:32:19.428Z,27.53
2022-08-03T16:34:46.156Z,27.01
2022-08-03T16:37:37.194Z,27.85
2022-08-03T16:39:58.999Z,28.03
2022-08-03T16:42:26.012Z,28.00
2022-08-03T16:44:52.709Z,26.85
2022-08-03T16:47:22.243Z,27.07
2022-08-03T16:49:54.966Z,26.61
2022-08-03T16:52:23.206Z,27.27
2022-08-03T16:54:53.001Z,27.12
2022-08-03T16:57:56.028Z,27.41
2022-08-03T17:00:34.251Z,28.44
2022-08-03T17:03:04.190Z,28.24
2022-08-03T17:05:43.875Z,27.34
2022-08-03T17:08:14.833Z,27.05
2022-08-03T17:10:45.249Z,27.65
2022-08-03T17:13:12.732Z,28.06
2022-08-03T17:15:58.088Z,28.02
2022-08-03T17:18:34.034Z,28.64
2022-08-03T17:21:04.218Z,28.85
2022-08-03T17:23:54.050Z,29.56
2022-08-03T17:26:22.534Z,29.33
2022-08-03T17:29:11.218Z,28.91
2022-08-03T17:31:49.128Z,28.93
2022-08-03T17:34:16.736Z,29.26
2022-08-03T17:37:03.300Z,29.29
2022-08-03T17:39:55.640Z,29.34
2022-08-03T17:42:30.697Z,29.51
2022-08-03T17:45:07.204Z,29.53
2022-08-03T17:47:42.736Z,29.95
2022-08-03T17:50:24.875Z,30.19
2022-08-03T17:53:01.231Z,30.36
2022-08-03T17:55:57.535Z,30.82
2022-08-03T17:58:34.234Z,31.28
2022-08-03T18:01:01.045Z,32.36
2022-08-03T18:03:56.964Z,33.64
2022-08-03T18:06:28.517Z,34.53
2022-08-03T18:08:58.111Z,34.78
2022-08-03T18:11:37.080Z,35.74
2022-08-03T18:14:16.576Z,36.19
2022-08-03T18:16:55.113Z,36.17
2022-08-03T18:20:02.816Z,36.77
2022-08-03T18:22:11.331Z,38.05
2022-08-03T18:24:39.356Z,38.61
2022-08-03T18:27:07.986Z,38.66
2022-08-03T18:29:36.206Z,39.42
2022-08-03T18:32:06.077Z,40.32
2022-08-03T18:34:36.512Z,41.68
2022-08-03T18:37:08.106Z,42.06
2022-08-03T18:39:49.253Z,42.15
2022-08-03T18:42:19.562Z,42.60
2022-08-03T18:44:54.009Z,43.58
2022-08-03T18:47:51.770Z,43.64
2022-08-03T18:50:30.765Z,44.65
2022-08-03T18:53:00.180Z,44.01
2022-08-03T18:55:33.477Z,44.06
2022-08-03T18:58:15.944Z,44.01
2022-08-03T19:01:58.128Z,44.00
2022-08-03T19:04:12.778Z,44.25
2022-08-03T19:06:43.396Z,45.09
2022-08-03T19:09:30.437Z,45.37
2022-08-03T19:12:14.214Z,45.14
2022-08-03T19:14:49.336Z,46.05
2022-08-03T19:17:21.276Z,46.08
2022-08-03T19:19:51.080Z,46.43
2022-08-03T19:22:18.704Z,47.29
2022-08-03T19:24:46.387Z,47.47
2022-08-03T19:27:13.617Z,48.02
2022-08-03T19:29:59.560Z,47.29
2022-08-03T19:32:33.664Z,47.31
2022-08-03T19:35:02.151Z,47.45
2022-08-03T19:37:38.111Z,47.59
2022-08-03T19:40:10.813Z,48.79
2022-08-03T19:42:43.710Z,47.71
2022-08-03T19:45:14.368Z,47.50
2022-08-03T19:47:51.238Z,49.02
2022-08-03T19:50:19.980Z,49.25
2022-08-03T19:52:48.090Z,50.31
2022-08-03T19:55:16.316Z,49.27
2022-08-03T19:57:49.300Z,49.93
2022-08-03T20:00:17.769Z,49.59
2022-08-03T20:02:45.132Z,50.23
2022-08-03T20:05:14.880Z,49.93
2022-08-03T20:07:47.689Z,50.10
2022-08-03T20:10:16.134Z,50.26
2022-08-03T20:12:44.593Z,51.85
2022-08-03T20:15:11.590Z,52.45
2022-08-03T20:17:54.728Z,52.63
2022-08-03T20:20:25.269Z,51.53
2022-08-03T20:22:57.631Z,51.57
2022-08-03T20:25:37.630Z,52.29
2022-08-03T20:28:13.902Z,52.97
2022-08-03T20:30:43.318Z,52.36
2022-08-03T20:33:10.474Z,52.68
2022-08-03T20:35:37.329Z,53.19
2022-08-03T20:38:03.701Z,52.93
2022-08-03T20:40:30.154Z,53.35
2022-08-03T20:42:57.260Z,53.90
2022-08-03T20:46:00.205Z,54.09
2022-08-03T20:48:10.403Z,54.27
2022-08-03T20:50:38.593Z,54.03
2022-08-03T20:53:06.839Z,53.98
2022-08-03T20:55:47.982Z,54.82
2022-08-03T20:58:20.325Z,54.44
2022-08-03T21:00:51.611Z,54.91
2022-08-03T21:03:19.017Z,55.25
2022-08-03T21:05:51.436Z,55.09
2022-08-03T21:08:23.044Z,55.33
2022-08-03T21:10:52.492Z,55.53
2022-08-03T21:13:38.242Z,56.39
2022-08-03T21:16:14.198Z,55.87
2022-08-03T21:18:52.082Z,55.98
2022-08-03T21:21:20.709Z,55.90
2022-08-03T21:23:53.231Z,56.32
2022-08-03T21:26:22.963Z,56.73
2022-08-03T21:28:51.239Z,57.02
2022-08-03T21:31:25.472Z,56.80
2022-08-03T21:34:04.799Z,57.55
2022-08-03T21:36:34.934Z,58.03
2022-08-03T21:39:04.437Z,57.28
2022-08-03T21:41:32.643Z,56.81
2022-08-03T21:44:00.325Z,56.83
2022-08-03T21:46:30.138Z,57.80
2022-08-03T21:50:07.079Z,57.19
2022-08-03T21:51:54.030Z,57.27
2022-08-03T21:54:21.289Z,57.39
2022-08-03T21:56:51.042Z,57.73
2022-08-03T21:59:20.122Z,58.40
2022-08-03T22:01:48.803Z,58.43
2022-08-03T22:04:50.948Z,58.29
2022-08-03T22:07:10.417Z,59.76
2022-08-03T22:09:37.255Z,59.03
2022-08-03T22:12:04.162Z,59.14
2022-08-03T22:14:33.386Z,59.67
2022-08-03T22:17:00.754Z,59.08
2022-08-03T22:19:33.066Z,60.00
2022-08-03T22:22:01.426Z,59.68
2022-08-03T22:24:31.453Z,59.58
2022-08-03T22:26:57.886Z,60.66
2022-08-03T22:29:24.490Z,60.70
2022-08-03T22:31:58.221Z,60.95
2022-08-03T22:34:26.918Z,60.80
2022-08-03T22:36:56.561Z,60.66
2022-08-03T22:39:28.000Z,61.20
2022-08-03T22:41:56.417Z,61.70
2022-08-03T22:44:23.495Z,61.13
2022-08-03T22:46:50.614Z,61.17
2022-08-03T22:49:18.418Z,61.22
2022-08-03T22:51:45.672Z,60.87
2022-08-03T22:54:12.366Z,61.75
2022-08-03T22:56:39.150Z,60.81
2022-08-03T22:59:38.817Z,60.83
2022-08-03T23:01:55.589Z,61.28
2022-08-03T23:04:25.221Z,61.69
2022-08-03T23:06:55.950Z,61.65
2022-08-03T23:09:24.395Z,62.15
2022-08-03T23:11:55.539Z,61.22
2022-08-03T23:14:23.303Z,61.11
2022-08-03T23:16:51.273Z,61.38
2022-08-03T23:19:25.156Z,61.25
2022-08-03T23:22:02.327Z,60.84
2022-08-03T23:24:33.408Z,60.62
2022-08-03T23:27:03.120Z,60.54
2022-08-03T23:29:30.473Z,60.66
2022-08-03T23:31:57.876Z,61.13
2022-08-03T23:34:25.079Z,61.00
2022-08-03T23:36:53.459Z,61.83
2022-08-03T23:39:20.028Z,61.94
2022-08-03T23:41:48.886Z,61.26
2022-08-03T23:44:16.653Z,61.07
2022-08-03T23:46:44.446Z,61.59
2022-08-03T23:49:10.877Z,61.58
2022-08-03T23:52:11.103Z,61.57
2022-08-03T23:54:47.851Z,61.76
2022-08-03T23:57:37.048Z,62.10
